sensor_id;sensor_type;location;lat;lon;timestamp;temperature;humidity
2623;DHT22;1321;48.690;9.022;2022-10-17T00:00:50;17.20;1.00
2623;DHT22;1321;48.690;9.022;2022-10-17T00:03:18;17.20;1.00
2623;DHT22;1321;48.690;9.022;2022-10-17T00:05:47;17.00;1.00
2623;DHT22;1321;48.690;9.022;2022-10-17T00:08:16;16.90;1.00
2623;DHT22;1321;48.690;9.022;2022-10-17T00:10:53;16.70;1.00
2623;DHT22;1321;48.690;9.022;2022-10-17T00:13:22;16.50;24.20
2623;DHT22;1321;48.690;9.022;2022-10-17T00:15:51;16.40;99.90
2623;DHT22;1321;48.690;9.022;2022-10-17T00:18:20;16.30;1.00
2623;DHT22;1321;48.690;9.022;2022-10-17T00:20:48;16.20;1.00
2623;DHT22;1321;48.690;9.022;2022-10-17T00:23:17;16.10;5.50
2623;DHT22;1321;48.690;9.022;2022-10-17T00:25:45;16.10;86.00
2623;DHT22;1321;48.690;9.022;2022-10-17T00:28:14;16.00;1.00
2623;DHT22;1321;48.690;9.022;2022-10-17T00:30:42;16.00;99.90
2623;DHT22;1321;48.690;9.022;2022-10-17T00:33:12;15.90;99.90
2623;DHT22;1321;48.690;9.022;2022-10-17T00:35:40;15.90;99.90
2623;DHT22;1321;48.690;9.022;2022-10-17T00:38:08;15.90;99.90
2623;DHT22;1321;48.690;9.022;2022-10-17T00:40:36;15.80;99.90
2623;DHT22;1321;48.690;9.022;2022-10-17T00:43:08;15.70;99.90
2623;DHT22;1321;48.690;9.022;2022-10-17T00:45:38;15.60;99.90
2623;DHT22;1321;48.690;9.022;2022-10-17T00:48:08;15.70;99.90
2623;DHT22;1321;48.690;9.022;2022-10-17T00:50:42;15.60;99.90
2623;DHT22;1321;48.690;9.022;2022-10-17T00:53:11;15.50;99.90
2623;DHT22;1321;48.690;9.022;2022-10-17T00:55:45;15.60;99.90
2623;DHT22;1321;48.690;9.022;2022-10-17T00:58:15;15.50;99.90
2623;DHT22;1321;48.690;9.022;2022-10-17T01:00:45;15.50;99.90
2623;DHT22;1321;48.690;9.022;2022-10-17T01:03:13;15.60;99.90
2623;DHT22;1321;48.690;9.022;2022-10-17T01:05:43;15.70;99.90
2623;DHT22;1321;48.690;9.022;2022-10-17T01:08:12;15.70;99.90
2623;DHT22;1321;48.690;9.022;2022-10-17T01:10:48;15.60;99.90
2623;DHT22;1321;48.690;9.022;2022-10-17T01:13:24;15.60;99.90
2623;DHT22;1321;48.690;9.022;2022-10-17T01:16:02;15.60;99.90
2623;DHT22;1321;48.690;9.022;2022-10-17T01:18:37;15.50;99.90
2623;DHT22;1321;48.690;9.022;2022-10-17T01:21:30;15.60;99.90
2623;DHT22;1321;48.690;9.022;2022-10-17T01:27:10;15.50;99.90
2623;DHT22;1321;48.690;9.022;2022-10-17T01:29:55;15.40;99.90
2623;DHT22;1321;48.690;9.022;2022-10-17T01:32:32;15.40;1.00
2623;DHT22;1321;48.690;9.022;2022-10-17T01:35:08;15.40;99.90
2623;DHT22;1321;48.690;9.022;2022-10-17T01:37:43;15.70;99.90
2623;DHT22;1321;48.690;9.022;2022-10-17T01:40:16;15.80;56.40
2623;DHT22;1321;48.690;9.022;2022-10-17T01:42:54;16.10;99.90
2623;DHT22;1321;48.690;9.022;2022-10-17T01:45:28;16.20;99.90
2623;DHT22;1321;48.690;9.022;2022-10-17T01:48:05;16.00;99.90
2623;DHT22;1321;48.690;9.022;2022-10-17T01:50:36;16.00;1.00
2623;DHT22;1321;48.690;9.022;2022-10-17T01:53:09;15.90;1.00
2623;DHT22;1321;48.690;9.022;2022-10-17T01:55:40;15.80;99.90
2623;DHT22;1321;48.690;9.022;2022-10-17T01:58:12;15.70;66.80
2623;DHT22;1321;48.690;9.022;2022-10-17T02:00:43;15.80;1.00
2623;DHT22;1321;48.690;9.022;2022-10-17T02:03:16;16.00;99.90
2623;DHT22;1321;48.690;9.022;2022-10-17T02:05:45;15.90;99.90
2623;DHT22;1321;48.690;9.022;2022-10-17T02:08:23;15.60;1.00
2623;DHT22;1321;48.690;9.022;2022-10-17T02:10:56;15.50;99.90
2623;DHT22;1321;48.690;9.022;2022-10-17T02:13:32;15.40;34.30
2623;DHT22;1321;48.690;9.022;2022-10-17T02:16:20;15.20;99.90
2623;DHT22;1321;48.690;9.022;2022-10-17T02:19:11;15.20;99.90
2623;DHT22;1321;48.690;9.022;2022-10-17T02:21:46;15.10;99.90
2623;DHT22;1321;48.690;9.022;2022-10-17T02:24:21;15.10;99.90
2623;DHT22;1321;48.690;9.022;2022-10-17T02:26:57;15.10;99.90
2623;DHT22;1321;48.690;9.022;2022-10-17T02:29:32;15.10;99.90
2623;DHT22;1321;48.690;9.022;2022-10-17T02:32:04;15.00;99.90
2623;DHT22;1321;48.690;9.022;2022-10-17T02:34:38;14.90;1.00
2623;DHT22;1321;48.690;9.022;2022-10-17T02:37:10;14.90;1.00
2623;DHT22;1321;48.690;9.022;2022-10-17T02:39:39;14.90;1.00
2623;DHT22;1321;48.690;9.022;2022-10-17T02:42:10;14.80;1.00
2623;DHT22;1321;48.690;9.022;2022-10-17T02:44:42;14.80;1.00
2623;DHT22;1321;48.690;9.022;2022-10-17T02:47:15;14.70;1.00
2623;DHT22;1321;48.690;9.022;2022-10-17T02:49:49;14.80;1.00
2623;DHT22;1321;48.690;9.022;2022-10-17T02:52:25;14.80;1.00
2623;DHT22;1321;48.690;9.022;2022-10-17T02:54:58;14.80;1.00
2623;DHT22;1321;48.690;9.022;2022-10-17T02:57:30;14.80;1.00
2623;DHT22;1321;48.690;9.022;2022-10-17T03:00:03;14.70;1.00
2623;DHT22;1321;48.690;9.022;2022-10-17T03:02:38;14.70;1.00
2623;DHT22;1321;48.690;9.022;2022-10-17T03:05:09;14.80;1.00
2623;DHT22;1321;48.690;9.022;2022-10-17T03:07:37;14.80;1.00
2623;DHT22;1321;48.690;9.022;2022-10-17T03:10:06;14.80;1.00
2623;DHT22;1321;48.690;9.022;2022-10-17T03:12:34;14.90;1.00
2623;DHT22;1321;48.690;9.022;2022-10-17T03:15:03;14.80;1.00
2623;DHT22;1321;48.690;9.022;2022-10-17T03:17:31;14.80;1.00
2623;DHT22;1321;48.690;9.022;2022-10-17T03:19:59;14.70;1.00
2623;DHT22;1321;48.690;9.022;2022-10-17T03:22:28;14.60;1.00
2623;DHT22;1321;48.690;9.022;2022-10-17T03:24:57;14.60;1.00
2623;DHT22;1321;48.690;9.022;2022-10-17T03:27:25;14.60;1.00
2623;DHT22;1321;48.690;9.022;2022-10-17T03:29:54;14.40;1.00
2623;DHT22;1321;48.690;9.022;2022-10-17T03:32:22;14.40;1.00
2623;DHT22;1321;48.690;9.022;2022-10-17T03:34:50;14.40;1.00
2623;DHT22;1321;48.690;9.022;2022-10-17T03:37:18;14.50;1.00
2623;DHT22;1321;48.690;9.022;2022-10-17T03:39:47;14.50;1.00
2623;DHT22;1321;48.690;9.022;2022-10-17T03:42:15;14.40;1.00
2623;DHT22;1321;48.690;9.022;2022-10-17T03:44:43;14.40;1.00
2623;DHT22;1321;48.690;9.022;2022-10-17T03:47:11;14.40;1.00
2623;DHT22;1321;48.690;9.022;2022-10-17T03:49:40;14.40;1.00
2623;DHT22;1321;48.690;9.022;2022-10-17T03:52:10;14.50;1.00
2623;DHT22;1321;48.690;9.022;2022-10-17T03:54:38;14.80;1.00
2623;DHT22;1321;48.690;9.022;2022-10-17T03:57:08;14.90;1.00
2623;DHT22;1321;48.690;9.022;2022-10-17T03:59:36;14.90;99.90
2623;DHT22;1321;48.690;9.022;2022-10-17T04:02:04;15.20;99.90
2623;DHT22;1321;48.690;9.022;2022-10-17T04:04:32;15.50;17.30
2623;DHT22;1321;48.690;9.022;2022-10-17T04:07:00;15.70;99.90
2623;DHT22;1321;48.690;9.022;2022-10-17T04:09:28;15.80;1.00
2623;DHT22;1321;48.690;9.022;2022-10-17T04:11:56;15.70;99.90
2623;DHT22;1321;48.690;9.022;2022-10-17T04:14:26;15.70;99.90
2623;DHT22;1321;48.690;9.022;2022-10-17T04:16:54;15.60;99.90
2623;DHT22;1321;48.690;9.022;2022-10-17T04:19:24;15.70;99.90
2623;DHT22;1321;48.690;9.022;2022-10-17T04:21:52;15.50;1.00
2623;DHT22;1321;48.690;9.022;2022-10-17T04:24:20;15.20;74.60
2623;DHT22;1321;48.690;9.022;2022-10-17T04:26:49;15.10;99.90
2623;DHT22;1321;48.690;9.022;2022-10-17T04:29:17;15.20;99.90
2623;DHT22;1321;48.690;9.022;2022-10-17T04:31:47;15.10;99.90
2623;DHT22;1321;48.690;9.022;2022-10-17T04:34:15;15.00;99.90
2623;DHT22;1321;48.690;9.022;2022-10-17T04:36:43;15.20;99.90
2623;DHT22;1321;48.690;9.022;2022-10-17T04:39:12;15.20;99.90
2623;DHT22;1321;48.690;9.022;2022-10-17T04:41:40;15.00;99.90
2623;DHT22;1321;48.690;9.022;2022-10-17T04:44:09;14.90;99.90
2623;DHT22;1321;48.690;9.022;2022-10-17T04:46:37;14.70;99.90
2623;DHT22;1321;48.690;9.022;2022-10-17T04:49:07;14.70;99.90
2623;DHT22;1321;48.690;9.022;2022-10-17T04:51:37;14.80;99.90
2623;DHT22;1321;48.690;9.022;2022-10-17T04:54:05;14.80;1.00
2623;DHT22;1321;48.690;9.022;2022-10-17T04:56:33;14.90;1.00
2623;DHT22;1321;48.690;9.022;2022-10-17T04:59:02;15.00;99.90
2623;DHT22;1321;48.690;9.022;2022-10-17T05:01:30;15.00;99.90
2623;DHT22;1321;48.690;9.022;2022-10-17T05:03:58;15.00;99.90
2623;DHT22;1321;48.690;9.022;2022-10-17T05:06:27;14.90;99.90
2623;DHT22;1321;48.690;9.022;2022-10-17T05:08:56;15.00;1.00
2623;DHT22;1321;48.690;9.022;2022-10-17T05:11:26;15.10;99.90
2623;DHT22;1321;48.690;9.022;2022-10-17T05:13:56;15.30;99.90
2623;DHT22;1321;48.690;9.022;2022-10-17T05:16:24;15.50;1.00
2623;DHT22;1321;48.690;9.022;2022-10-17T05:18:55;15.60;1.00
2623;DHT22;1321;48.690;9.022;2022-10-17T05:21:25;15.60;99.90
2623;DHT22;1321;48.690;9.022;2022-10-17T05:23:55;15.60;1.00
2623;DHT22;1321;48.690;9.022;2022-10-17T05:26:23;15.60;1.00
2623;DHT22;1321;48.690;9.022;2022-10-17T05:28:52;15.60;1.00
2623;DHT22;1321;48.690;9.022;2022-10-17T05:31:20;15.50;1.00
2623;DHT22;1321;48.690;9.022;2022-10-17T05:33:48;15.50;99.90
2623;DHT22;1321;48.690;9.022;2022-10-17T05:36:16;15.30;99.90
2623;DHT22;1321;48.690;9.022;2022-10-17T05:38:48;15.20;99.90
2623;DHT22;1321;48.690;9.022;2022-10-17T05:41:18;15.10;99.90
2623;DHT22;1321;48.690;9.022;2022-10-17T05:43:47;15.00;99.90
2623;DHT22;1321;48.690;9.022;2022-10-17T05:46:16;14.90;1.00
2623;DHT22;1321;48.690;9.022;2022-10-17T05:48:44;14.90;1.00
2623;DHT22;1321;48.690;9.022;2022-10-17T05:51:12;14.80;1.00
2623;DHT22;1321;48.690;9.022;2022-10-17T05:53:41;14.70;1.00
2623;DHT22;1321;48.690;9.022;2022-10-17T05:56:10;14.70;1.00
2623;DHT22;1321;48.690;9.022;2022-10-17T05:58:41;14.70;1.00
2623;DHT22;1321;48.690;9.022;2022-10-17T06:01:17;14.70;1.00
2623;DHT22;1321;48.690;9.022;2022-10-17T06:03:45;14.80;1.00
2623;DHT22;1321;48.690;9.022;2022-10-17T06:06:14;14.70;1.00
2623;DHT22;1321;48.690;9.022;2022-10-17T06:08:43;14.70;1.00
2623;DHT22;1321;48.690;9.022;2022-10-17T06:11:11;14.80;1.00
2623;DHT22;1321;48.690;9.022;2022-10-17T06:13:41;14.70;1.00
2623;DHT22;1321;48.690;9.022;2022-10-17T06:16:09;14.70;1.00
2623;DHT22;1321;48.690;9.022;2022-10-17T06:18:37;14.60;1.00
2623;DHT22;1321;48.690;9.022;2022-10-17T06:21:08;14.50;1.00
2623;DHT22;1321;48.690;9.022;2022-10-17T06:23:36;14.50;1.00
2623;DHT22;1321;48.690;9.022;2022-10-17T06:26:05;14.60;1.00
2623;DHT22;1321;48.690;9.022;2022-10-17T06:28:34;14.60;1.00
2623;DHT22;1321;48.690;9.022;2022-10-17T06:31:08;14.40;1.00
2623;DHT22;1321;48.690;9.022;2022-10-17T06:33:36;14.40;1.00
2623;DHT22;1321;48.690;9.022;2022-10-17T06:36:06;14.50;1.00
2623;DHT22;1321;48.690;9.022;2022-10-17T06:38:34;14.50;1.00
2623;DHT22;1321;48.690;9.022;2022-10-17T06:41:03;14.50;1.00
2623;DHT22;1321;48.690;9.022;2022-10-17T06:43:34;14.40;1.00
2623;DHT22;1321;48.690;9.022;2022-10-17T06:46:02;14.40;1.00
2623;DHT22;1321;48.690;9.022;2022-10-17T06:48:32;14.40;1.00
2623;DHT22;1321;48.690;9.022;2022-10-17T06:51:01;14.50;1.00
2623;DHT22;1321;48.690;9.022;2022-10-17T06:53:31;14.50;1.00
2623;DHT22;1321;48.690;9.022;2022-10-17T06:56:00;14.50;1.00
2623;DHT22;1321;48.690;9.022;2022-10-17T06:58:32;14.60;1.00
2623;DHT22;1321;48.690;9.022;2022-10-17T07:01:01;14.60;1.00
2623;DHT22;1321;48.690;9.022;2022-10-17T07:03:31;14.70;1.00
2623;DHT22;1321;48.690;9.022;2022-10-17T07:05:59;14.80;1.00
2623;DHT22;1321;48.690;9.022;2022-10-17T07:08:27;14.80;1.00
2623;DHT22;1321;48.690;9.022;2022-10-17T07:10:56;14.90;1.00
2623;DHT22;1321;48.690;9.022;2022-10-17T07:13:24;15.00;1.00
2623;DHT22;1321;48.690;9.022;2022-10-17T07:15:52;15.10;99.90
2623;DHT22;1321;48.690;9.022;2022-10-17T07:18:24;15.20;99.90
2623;DHT22;1321;48.690;9.022;2022-10-17T07:20:54;15.30;1.00
2623;DHT22;1321;48.690;9.022;2022-10-17T07:23:22;15.50;1.00
2623;DHT22;1321;48.690;9.022;2022-10-17T07:25:51;15.90;99.90
2623;DHT22;1321;48.690;9.022;2022-10-17T07:28:19;16.10;1.00
2623;DHT22;1321;48.690;9.022;2022-10-17T07:30:48;16.40;1.00
2623;DHT22;1321;48.690;9.022;2022-10-17T07:33:20;16.70;1.00
2623;DHT22;1321;48.690;9.022;2022-10-17T07:35:48;17.00;99.90
2623;DHT22;1321;48.690;9.022;2022-10-17T07:38:19;17.30;1.00
2623;DHT22;1321;48.690;9.022;2022-10-17T07:40:53;17.60;1.00
2623;DHT22;1321;48.690;9.022;2022-10-17T07:43:22;17.80;99.90
2623;DHT22;1321;48.690;9.022;2022-10-17T07:45:50;18.00;99.90
2623;DHT22;1321;48.690;9.022;2022-10-17T07:48:19;18.40;1.00
2623;DHT22;1321;48.690;9.022;2022-10-17T07:50:48;18.50;1.00
2623;DHT22;1321;48.690;9.022;2022-10-17T07:53:18;18.80;1.00
2623;DHT22;1321;48.690;9.022;2022-10-17T07:55:46;19.10;99.90
2623;DHT22;1321;48.690;9.022;2022-10-17T07:58:15;19.40;99.90
2623;DHT22;1321;48.690;9.022;2022-10-17T08:00:43;19.90;36.90
2623;DHT22;1321;48.690;9.022;2022-10-17T08:03:14;20.20;1.00
2623;DHT22;1321;48.690;9.022;2022-10-17T08:05:42;20.50;1.00
2623;DHT22;1321;48.690;9.022;2022-10-17T08:08:10;20.70;1.00
2623;DHT22;1321;48.690;9.022;2022-10-17T08:10:40;21.10;1.00
2623;DHT22;1321;48.690;9.022;2022-10-17T08:13:08;21.50;1.00
2623;DHT22;1321;48.690;9.022;2022-10-17T08:15:36;22.10;1.00
2623;DHT22;1321;48.690;9.022;2022-10-17T08:18:05;22.60;99.90
2623;DHT22;1321;48.690;9.022;2022-10-17T08:20:33;23.40;99.90
2623;DHT22;1321;48.690;9.022;2022-10-17T08:23:02;23.60;99.90
2623;DHT22;1321;48.690;9.022;2022-10-17T08:25:30;23.80;99.90
2623;DHT22;1321;48.690;9.022;2022-10-17T08:27:59;24.00;99.90
2623;DHT22;1321;48.690;9.022;2022-10-17T08:30:28;24.40;99.90
2623;DHT22;1321;48.690;9.022;2022-10-17T08:32:56;24.70;99.90
2623;DHT22;1321;48.690;9.022;2022-10-17T08:35:25;25.50;99.90
2623;DHT22;1321;48.690;9.022;2022-10-17T08:37:53;26.00;99.90
2623;DHT22;1321;48.690;9.022;2022-10-17T08:40:23;26.50;99.90
2623;DHT22;1321;48.690;9.022;2022-10-17T08:43:30;26.80;99.90
2623;DHT22;1321;48.690;9.022;2022-10-17T08:46:04;27.50;99.90
2623;DHT22;1321;48.690;9.022;2022-10-17T08:48:37;28.00;99.90
2623;DHT22;1321;48.690;9.022;2022-10-17T08:51:14;28.70;99.90
2623;DHT22;1321;48.690;9.022;2022-10-17T08:53:48;28.80;99.90
2623;DHT22;1321;48.690;9.022;2022-10-17T08:56:18;29.20;99.90
2623;DHT22;1321;48.690;9.022;2022-10-17T08:59:10;29.90;99.90
2623;DHT22;1321;48.690;9.022;2022-10-17T09:01:44;29.50;99.90
2623;DHT22;1321;48.690;9.022;2022-10-17T09:07:18;29.00;99.90
2623;DHT22;1321;48.690;9.022;2022-10-17T09:09:55;29.00;99.90
2623;DHT22;1321;48.690;9.022;2022-10-17T09:12:33;28.80;99.90
2623;DHT22;1321;48.690;9.022;2022-10-17T09:18:00;29.60;99.90
2623;DHT22;1321;48.690;9.022;2022-10-17T09:20:32;29.40;99.90
2623;DHT22;1321;48.690;9.022;2022-10-17T09:23:04;29.50;99.90
2623;DHT22;1321;48.690;9.022;2022-10-17T09:25:40;29.60;99.90
2623;DHT22;1321;48.690;9.022;2022-10-17T09:28:14;29.20;99.90
2623;DHT22;1321;48.690;9.022;2022-10-17T09:30:45;28.80;99.90
2623;DHT22;1321;48.690;9.022;2022-10-17T09:33:17;28.20;99.90
2623;DHT22;1321;48.690;9.022;2022-10-17T09:36:10;28.20;99.90
2623;DHT22;1321;48.690;9.022;2022-10-17T09:38:42;28.20;99.90
2623;DHT22;1321;48.690;9.022;2022-10-17T09:41:15;27.90;99.90
2623;DHT22;1321;48.690;9.022;2022-10-17T09:44:13;27.50;99.90
2623;DHT22;1321;48.690;9.022;2022-10-17T09:46:48;27.60;99.90
2623;DHT22;1321;48.690;9.022;2022-10-17T09:49:25;27.70;99.90
2623;DHT22;1321;48.690;9.022;2022-10-17T09:51:57;28.10;99.90
2623;DHT22;1321;48.690;9.022;2022-10-17T09:54:40;28.20;99.90
2623;DHT22;1321;48.690;9.022;2022-10-17T09:57:10;28.70;99.90
2623;DHT22;1321;48.690;9.022;2022-10-17T09:59:40;28.80;99.90
2623;DHT22;1321;48.690;9.022;2022-10-17T10:02:17;29.00;99.90
2623;DHT22;1321;48.690;9.022;2022-10-17T10:04:56;29.70;99.90
2623;DHT22;1321;48.690;9.022;2022-10-17T10:07:35;30.90;99.90
2623;DHT22;1321;48.690;9.022;2022-10-17T10:10:05;31.70;99.90
2623;DHT22;1321;48.690;9.022;2022-10-17T10:12:36;31.80;99.90
2623;DHT22;1321;48.690;9.022;2022-10-17T10:15:30;31.90;99.90
2623;DHT22;1321;48.690;9.022;2022-10-17T10:17:59;31.80;99.90
2623;DHT22;1321;48.690;9.022;2022-10-17T10:20:32;31.00;99.90
2623;DHT22;1321;48.690;9.022;2022-10-17T10:23:15;31.00;99.90
2623;DHT22;1321;48.690;9.022;2022-10-17T10:25:55;31.00;99.90
2623;DHT22;1321;48.690;9.022;2022-10-17T10:28:28;31.30;99.90
2623;DHT22;1321;48.690;9.022;2022-10-17T10:30:58;32.20;99.90
2623;DHT22;1321;48.690;9.022;2022-10-17T10:33:29;33.10;99.90
2623;DHT22;1321;48.690;9.022;2022-10-17T10:36:00;34.00;99.90
2623;DHT22;1321;48.690;9.022;2022-10-17T10:38:30;34.30;99.90
2623;DHT22;1321;48.690;9.022;2022-10-17T10:41:02;34.00;99.90
2623;DHT22;1321;48.690;9.022;2022-10-17T10:43:34;34.30;99.90
2623;DHT22;1321;48.690;9.022;2022-10-17T10:46:05;34.40;99.90
2623;DHT22;1321;48.690;9.022;2022-10-17T10:48:50;33.90;99.90
2623;DHT22;1321;48.690;9.022;2022-10-17T10:51:26;34.60;99.90
2623;DHT22;1321;48.690;9.022;2022-10-17T10:54:02;35.00;99.90
2623;DHT22;1321;48.690;9.022;2022-10-17T10:56:36;34.00;99.90
2623;DHT22;1321;48.690;9.022;2022-10-17T10:59:11;34.10;99.90
2623;DHT22;1321;48.690;9.022;2022-10-17T11:01:48;34.80;99.90
2623;DHT22;1321;48.690;9.022;2022-10-17T11:04:25;34.60;99.90
2623;DHT22;1321;48.690;9.022;2022-10-17T11:07:00;33.70;99.90
2623;DHT22;1321;48.690;9.022;2022-10-17T11:09:44;35.10;99.90
2623;DHT22;1321;48.690;9.022;2022-10-17T11:12:17;34.60;99.90
2623;DHT22;1321;48.690;9.022;2022-10-17T11:14:50;31.20;99.90
2623;DHT22;1321;48.690;9.022;2022-10-17T11:17:27;29.60;99.90
2623;DHT22;1321;48.690;9.022;2022-10-17T11:20:18;28.50;99.90
2623;DHT22;1321;48.690;9.022;2022-10-17T11:22:54;28.00;99.90
2623;DHT22;1321;48.690;9.022;2022-10-17T11:25:32;27.70;99.90
2623;DHT22;1321;48.690;9.022;2022-10-17T11:28:01;27.60;99.90
2623;DHT22;1321;48.690;9.022;2022-10-17T11:30:40;27.50;99.90
2623;DHT22;1321;48.690;9.022;2022-10-17T11:33:14;27.40;99.90
2623;DHT22;1321;48.690;9.022;2022-10-17T11:35:44;27.30;99.90
2623;DHT22;1321;48.690;9.022;2022-10-17T11:38:18;27.10;99.90
2623;DHT22;1321;48.690;9.022;2022-10-17T11:40:49;27.10;99.90
2623;DHT22;1321;48.690;9.022;2022-10-17T11:43:27;27.20;99.90
2623;DHT22;1321;48.690;9.022;2022-10-17T11:46:01;27.10;99.90
2623;DHT22;1321;48.690;9.022;2022-10-17T11:48:34;27.20;99.90
2623;DHT22;1321;48.690;9.022;2022-10-17T11:51:11;27.20;99.90
2623;DHT22;1321;48.690;9.022;2022-10-17T11:54:05;27.10;99.90
2623;DHT22;1321;48.690;9.022;2022-10-17T11:56:41;27.10;99.90
2623;DHT22;1321;48.690;9.022;2022-10-17T11:59:32;27.00;99.90
2623;DHT22;1321;48.690;9.022;2022-10-17T12:02:13;27.00;99.90
2623;DHT22;1321;48.690;9.022;2022-10-17T12:04:51;26.90;99.90
2623;DHT22;1321;48.690;9.022;2022-10-17T12:07:27;26.90;99.90
2623;DHT22;1321;48.690;9.022;2022-10-17T12:10:03;26.70;99.90
2623;DHT22;1321;48.690;9.022;2022-10-17T12:12:34;26.70;99.90
2623;DHT22;1321;48.690;9.022;2022-10-17T12:15:26;26.70;99.90
2623;DHT22;1321;48.690;9.022;2022-10-17T12:17:55;26.70;99.90
2623;DHT22;1321;48.690;9.022;2022-10-17T12:20:32;26.80;99.90
2623;DHT22;1321;48.690;9.022;2022-10-17T12:23:25;26.50;99.90
2623;DHT22;1321;48.690;9.022;2022-10-17T12:25:57;26.60;99.90
2623;DHT22;1321;48.690;9.022;2022-10-17T12:28:32;26.60;99.90
2623;DHT22;1321;48.690;9.022;2022-10-17T12:31:03;26.50;99.90
2623;DHT22;1321;48.690;9.022;2022-10-17T12:33:34;26.50;99.90
2623;DHT22;1321;48.690;9.022;2022-10-17T12:42:45;26.40;99.90
2623;DHT22;1321;48.690;9.022;2022-10-17T12:45:47;26.40;99.90
2623;DHT22;1321;48.690;9.022;2022-10-17T12:51:22;26.40;99.90
2623;DHT22;1321;48.690;9.022;2022-10-17T12:54:09;26.40;99.90
2623;DHT22;1321;48.690;9.022;2022-10-17T12:56:40;26.40;99.90
2623;DHT22;1321;48.690;9.022;2022-10-17T12:59:14;26.30;99.90
2623;DHT22;1321;48.690;9.022;2022-10-17T13:01:45;26.30;99.90
2623;DHT22;1321;48.690;9.022;2022-10-17T13:04:14;26.20;99.90
2623;DHT22;1321;48.690;9.022;2022-10-17T13:06:45;26.20;99.90
2623;DHT22;1321;48.690;9.022;2022-10-17T13:09:23;26.20;99.90
2623;DHT22;1321;48.690;9.022;2022-10-17T13:11:53;26.20;99.90
2623;DHT22;1321;48.690;9.022;2022-10-17T13:14:23;26.20;99.90
2623;DHT22;1321;48.690;9.022;2022-10-17T13:16:53;26.20;99.90
2623;DHT22;1321;48.690;9.022;2022-10-17T13:19:23;26.10;99.90
2623;DHT22;1321;48.690;9.022;2022-10-17T13:21:52;26.20;99.90
2623;DHT22;1321;48.690;9.022;2022-10-17T13:24:31;26.20;99.90
2623;DHT22;1321;48.690;9.022;2022-10-17T13:27:00;26.10;99.90
2623;DHT22;1321;48.690;9.022;2022-10-17T13:29:30;26.10;99.90
2623;DHT22;1321;48.690;9.022;2022-10-17T13:32:00;26.00;99.90
2623;DHT22;1321;48.690;9.022;2022-10-17T13:34:31;25.90;99.90
2623;DHT22;1321;48.690;9.022;2022-10-17T13:37:01;26.00;99.90
2623;DHT22;1321;48.690;9.022;2022-10-17T13:39:33;26.00;99.90
2623;DHT22;1321;48.690;9.022;2022-10-17T13:42:23;26.00;99.90
2623;DHT22;1321;48.690;9.022;2022-10-17T13:44:53;26.00;99.90
2623;DHT22;1321;48.690;9.022;2022-10-17T13:47:22;25.90;99.90
2623;DHT22;1321;48.690;9.022;2022-10-17T13:49:51;25.90;99.90
2623;DHT22;1321;48.690;9.022;2022-10-17T13:52:24;25.90;99.90
2623;DHT22;1321;48.690;9.022;2022-10-17T13:54:55;25.90;99.90
2623;DHT22;1321;48.690;9.022;2022-10-17T13:57:32;25.90;99.90
2623;DHT22;1321;48.690;9.022;2022-10-17T14:00:06;25.80;99.90
2623;DHT22;1321;48.690;9.022;2022-10-17T14:02:39;25.80;99.90
2623;DHT22;1321;48.690;9.022;2022-10-17T14:05:11;25.80;99.90
2623;DHT22;1321;48.690;9.022;2022-10-17T14:07:51;25.90;99.90
2623;DHT22;1321;48.690;9.022;2022-10-17T14:10:41;25.80;99.90
2623;DHT22;1321;48.690;9.022;2022-10-17T14:13:20;25.80;99.90
2623;DHT22;1321;48.690;9.022;2022-10-17T14:15:50;25.80;99.90
2623;DHT22;1321;48.690;9.022;2022-10-17T14:18:21;25.80;99.90
2623;DHT22;1321;48.690;9.022;2022-10-17T14:20:51;25.70;99.90
2623;DHT22;1321;48.690;9.022;2022-10-17T14:23:42;25.70;99.90
2623;DHT22;1321;48.690;9.022;2022-10-17T14:26:13;25.70;99.90
2623;DHT22;1321;48.690;9.022;2022-10-17T14:28:44;25.60;99.90
2623;DHT22;1321;48.690;9.022;2022-10-17T14:31:24;25.60;99.90
2623;DHT22;1321;48.690;9.022;2022-10-17T14:33:53;25.50;99.90
2623;DHT22;1321;48.690;9.022;2022-10-17T14:36:30;25.50;99.90
2623;DHT22;1321;48.690;9.022;2022-10-17T14:38:59;25.50;99.90
2623;DHT22;1321;48.690;9.022;2022-10-17T14:41:29;25.50;99.90
2623;DHT22;1321;48.690;9.022;2022-10-17T14:44:22;25.40;99.90
2623;DHT22;1321;48.690;9.022;2022-10-17T14:46:56;25.40;99.90
2623;DHT22;1321;48.690;9.022;2022-10-17T14:49:39;25.40;99.90
2623;DHT22;1321;48.690;9.022;2022-10-17T14:52:26;25.30;99.90
2623;DHT22;1321;48.690;9.022;2022-10-17T14:54:56;25.40;99.90
2623;DHT22;1321;48.690;9.022;2022-10-17T14:57:40;25.30;99.90
2623;DHT22;1321;48.690;9.022;2022-10-17T15:00:13;25.30;99.90
2623;DHT22;1321;48.690;9.022;2022-10-17T15:02:43;25.30;99.90
2623;DHT22;1321;48.690;9.022;2022-10-17T15:05:12;25.20;99.90
2623;DHT22;1321;48.690;9.022;2022-10-17T15:07:41;25.20;99.90
2623;DHT22;1321;48.690;9.022;2022-10-17T15:10:24;25.20;99.90
2623;DHT22;1321;48.690;9.022;2022-10-17T15:12:52;25.20;99.90
2623;DHT22;1321;48.690;9.022;2022-10-17T15:15:30;25.20;99.90
2623;DHT22;1321;48.690;9.022;2022-10-17T15:18:00;25.10;99.90
2623;DHT22;1321;48.690;9.022;2022-10-17T15:20:28;25.10;99.90
2623;DHT22;1321;48.690;9.022;2022-10-17T15:22:59;25.00;99.90
2623;DHT22;1321;48.690;9.022;2022-10-17T15:25:28;24.90;99.90
2623;DHT22;1321;48.690;9.022;2022-10-17T15:27:57;24.90;99.90
2623;DHT22;1321;48.690;9.022;2022-10-17T15:30:27;24.90;99.90
2623;DHT22;1321;48.690;9.022;2022-10-17T15:32:56;24.90;99.90
2623;DHT22;1321;48.690;9.022;2022-10-17T15:35:27;24.90;99.90
2623;DHT22;1321;48.690;9.022;2022-10-17T15:37:55;24.80;99.90
2623;DHT22;1321;48.690;9.022;2022-10-17T15:40:26;24.80;99.90
2623;DHT22;1321;48.690;9.022;2022-10-17T15:42:55;24.70;99.90
2623;DHT22;1321;48.690;9.022;2022-10-17T15:45:24;24.70;99.90
2623;DHT22;1321;48.690;9.022;2022-10-17T15:47:55;24.60;99.90
2623;DHT22;1321;48.690;9.022;2022-10-17T15:50:23;24.50;99.90
2623;DHT22;1321;48.690;9.022;2022-10-17T15:52:52;24.50;99.90
2623;DHT22;1321;48.690;9.022;2022-10-17T15:55:21;24.40;99.90
2623;DHT22;1321;48.690;9.022;2022-10-17T15:57:49;24.40;99.90
2623;DHT22;1321;48.690;9.022;2022-10-17T16:00:19;24.30;99.90
2623;DHT22;1321;48.690;9.022;2022-10-17T16:02:47;24.20;99.90
2623;DHT22;1321;48.690;9.022;2022-10-17T16:05:18;24.20;99.90
2623;DHT22;1321;48.690;9.022;2022-10-17T16:07:49;24.10;99.90
2623;DHT22;1321;48.690;9.022;2022-10-17T16:10:19;24.00;99.90
2623;DHT22;1321;48.690;9.022;2022-10-17T16:12:48;23.90;99.90
2623;DHT22;1321;48.690;9.022;2022-10-17T16:15:18;23.70;99.90
2623;DHT22;1321;48.690;9.022;2022-10-17T16:17:48;23.60;99.90
2623;DHT22;1321;48.690;9.022;2022-10-17T16:20:17;23.40;99.90
2623;DHT22;1321;48.690;9.022;2022-10-17T16:22:45;23.20;99.90
2623;DHT22;1321;48.690;9.022;2022-10-17T16:25:20;23.10;99.90
2623;DHT22;1321;48.690;9.022;2022-10-17T16:27:50;23.00;99.90
2623;DHT22;1321;48.690;9.022;2022-10-17T16:30:19;22.90;99.90
2623;DHT22;1321;48.690;9.022;2022-10-17T16:32:50;22.80;99.90
2623;DHT22;1321;48.690;9.022;2022-10-17T16:35:21;22.80;99.90
2623;DHT22;1321;48.690;9.022;2022-10-17T16:37:49;22.70;99.90
2623;DHT22;1321;48.690;9.022;2022-10-17T16:40:19;22.60;99.90
2623;DHT22;1321;48.690;9.022;2022-10-17T16:42:47;22.40;99.90
2623;DHT22;1321;48.690;9.022;2022-10-17T16:45:17;22.30;99.90
2623;DHT22;1321;48.690;9.022;2022-10-17T16:47:46;22.30;99.90
2623;DHT22;1321;48.690;9.022;2022-10-17T16:50:14;22.20;99.90
2623;DHT22;1321;48.690;9.022;2022-10-17T16:52:42;22.00;99.90
2623;DHT22;1321;48.690;9.022;2022-10-17T16:55:10;22.00;99.90
2623;DHT22;1321;48.690;9.022;2022-10-17T16:57:42;21.90;99.90